Time;durP1;ratioP1;P1;durP2;ratioP2;P2;SDS_P1;SDS_P2;PMS_P1;PMS_P2;Temp;Humidity;BMP_temperature;BMP_pressure;BME280_temperature;BME280_humidity;BME280_pressure;Samples;Min_cycle;Max_cycle;Signal;HPM_P1;HPM_P2
2023/07/12 00:04:04;;;;;;;12.80;8.90;;;;;;;14.93;87.21;98938.94;271981;1256;22434;-77
2023/07/12 00:10:30;;;;;;;11.80;8.30;;;;;;;14.78;87.48;98931.48;273890;1266;22307;-77
2023/07/12 00:16:55;;;;;;;12.40;8.40;;;;;;;14.70;87.93;98920.04;272228;1260;22408;-78
2023/07/12 00:23:01;;;;;;;13.80;8.30;;;;;;;14.64;88.40;98917.31;271361;1266;22543;-77
2023/07/12 00:29:13;;;;;;;10.60;6.30;;;;;;;14.61;89.14;98923.79;270578;1266;27587;-77
2023/07/12 00:35:36;;;;;;;15.80;7.10;;;;;;;14.63;89.50;98911.65;272503;1266;22363;-77
2023/07/12 00:41:57;;;;;;;11.00;7.20;;;;;;;14.57;89.61;98905.39;273942;1259;22486;-77
2023/07/12 00:47:59;;;;;;;18.30;8.30;;;;;;;14.48;89.96;98901.67;271848;1266;22536;-77
2023/07/12 00:54:04;;;;;;;9.50;6.50;;;;;;;14.46;90.31;98895.06;272595;1254;23074;-77
2023/07/12 01:00:10;;;;;;;10.90;7.20;;;;;;;14.32;90.28;98883.52;271611;1259;22237;-76
2023/07/12 01:06:17;;;;;;;9.20;7.00;;;;;;;14.18;90.60;98875.39;272508;1266;24179;-77
2023/07/12 01:12:19;;;;;;;11.10;7.50;;;;;;;14.12;91.37;98880.60;270251;1266;22728;-77
2023/07/12 01:18:21;;;;;;;12.10;8.10;;;;;;;14.10;91.81;98881.63;273625;1266;22304;-76
2023/07/12 01:24:24;;;;;;;12.00;7.30;;;;;;;14.01;91.85;98874.59;273846;1266;22387;-76
2023/07/12 01:30:27;;;;;;;11.60;8.20;;;;;;;13.92;91.98;98867.16;273952;1256;22246;-77
2023/07/12 01:36:31;;;;;;;11.70;7.30;;;;;;;13.88;92.50;98862.32;273916;1263;22373;-77
2023/07/12 01:42:32;;;;;;;10.90;7.10;;;;;;;13.89;92.87;98860.02;273878;1256;22208;-77
2023/07/12 01:48:34;;;;;;;16.10;7.80;;;;;;;13.86;93.15;98869.16;273817;1266;22202;-79
2023/07/12 01:54:36;;;;;;;10.00;7.50;;;;;;;13.76;93.09;98860.23;273285;1254;22550;-76
2023/07/12 02:00:39;;;;;;;13.00;7.90;;;;;;;13.67;93.35;98843.92;270994;1266;22563;-76
2023/07/12 02:06:41;;;;;;;10.50;7.40;;;;;;;13.63;93.71;98836.15;271874;1259;22409;-76
2023/07/12 02:12:43;;;;;;;11.70;7.80;;;;;;;13.53;93.86;98828.98;273742;1254;22291;-77
2023/07/12 02:18:45;;;;;;;11.60;7.20;;;;;;;13.44;94.20;98822.95;272582;1269;23644;-76
2023/07/12 02:24:46;;;;;;;10.70;7.50;;;;;;;13.41;94.65;98812.66;270941;1268;24190;-76
2023/07/12 02:30:50;;;;;;;8.80;7.10;;;;;;;13.37;94.93;98811.10;273474;1267;22387;-77
2023/07/12 02:36:53;;;;;;;11.20;7.50;;;;;;;13.33;95.29;98810.16;273656;1269;22203;-77
2023/07/12 02:43:17;;;;;;;13.10;7.40;;;;;;;13.32;95.49;98807.58;273689;1267;23567;-76
2023/07/12 02:49:19;;;;;;;11.80;6.80;;;;;;;13.29;95.66;98800.44;273508;1267;22503;-76
2023/07/12 02:55:41;;;;;;;14.70;7.20;;;;;;;13.27;95.92;98794.87;273127;1269;22548;-76
2023/07/12 03:01:46;;;;;;;11.00;7.30;;;;;;;13.22;96.18;98786.86;272838;1261;22363;-77
2023/07/12 03:07:48;;;;;;;10.00;7.60;;;;;;;13.18;96.27;98776.99;273456;1269;23997;-77
2023/07/12 03:13:50;;;;;;;11.10;7.90;;;;;;;13.17;96.60;98767.09;273290;1259;297319;-77
2023/07/12 03:19:52;;;;;;;10.30;7.10;;;;;;;13.20;97.05;98763.33;273619;1268;22279;-77
2023/07/12 03:25:56;;;;;;;8.00;5.90;;;;;;;13.25;97.66;98769.83;273588;1269;23017;-76
2023/07/12 03:31:59;;;;;;;8.40;6.70;;;;;;;13.31;97.85;98777.58;273391;1269;23510;-77
2023/07/12 03:38:00;;;;;;;10.90;7.60;;;;;;;13.33;98.03;98773.80;273872;1259;22961;-76
2023/07/12 03:44:02;;;;;;;13.20;7.50;;;;;;;13.39;98.51;98772.91;272972;1256;23795;-77
2023/07/12 03:50:04;;;;;;;12.60;8.00;;;;;;;13.43;98.76;98766.92;272610;1269;22512;-77
2023/07/12 03:56:06;;;;;;;15.40;8.20;;;;;;;13.46;99.05;98754.34;271453;1266;25284;-76
2023/07/12 04:02:08;;;;;;;12.90;7.60;;;;;;;13.55;99.53;98752.19;272873;1267;22354;-77
2023/07/12 04:08:30;;;;;;;10.40;7.20;;;;;;;13.71;99.96;98744.09;273650;1256;22325;-77
2023/07/12 04:14:32;;;;;;;12.10;8.10;;;;;;;13.89;100.00;98741.30;273097;1267;25374;-77
2023/07/12 04:20:38;;;;;;;10.60;7.20;;;;;;;14.08;100.00;98733.23;273709;1260;23188;-76
2023/07/12 04:26:40;;;;;;;10.80;6.70;;;;;;;14.30;100.00;98731.84;273653;1263;22588;-77
2023/07/12 04:32:47;;;;;;;13.10;7.60;;;;;;;14.51;100.00;98734.58;272931;1267;22274;-77
2023/07/12 04:38:48;;;;;;;;;;;;;;;14.73;100.00;98733.75;272385;1257;23260;-77
2023/07/12 04:44:50;;;;;;;9.50;7.90;;;;;;;14.93;100.00;98726.15;269876;1266;22647;-76
2023/07/12 04:50:53;;;;;;;15.20;8.00;;;;;;;15.14;99.82;98722.29;271279;1267;23314;-78
2023/07/12 04:56:55;;;;;;;11.70;7.40;;;;;;;15.34;99.42;98717.17;270176;1266;24018;-76
2023/07/12 05:02:57;;;;;;;13.40;7.80;;;;;;;15.53;98.94;98712.77;273697;1266;23703;-76
2023/07/12 05:08:59;;;;;;;15.30;9.50;;;;;;;15.72;98.77;98713.45;271737;1266;22535;-77
2023/07/12 05:15:01;;;;;;;20.10;10.70;;;;;;;15.97;98.66;98708.60;269909;1266;22640;-76
2023/07/12 05:21:03;;;;;;;17.90;10.00;;;;;;;16.26;98.67;98699.15;271118;1269;23220;-77
2023/07/12 05:27:05;;;;;;;14.50;9.40;;;;;;;16.54;98.50;98684.64;273003;1266;22369;-79
2023/07/12 05:33:06;;;;;;;18.30;9.20;;;;;;;16.81;98.27;98685.83;273572;1259;23424;-78
2023/07/12 05:39:08;;;;;;;14.60;8.30;;;;;;;17.03;97.99;98682.93;273539;1267;22529;-76
2023/07/12 05:45:13;;;;;;;11.50;7.60;;;;;;;17.24;98.12;98668.37;273154;1267;25243;-78
2023/07/12 05:51:16;;;;;;;10.70;6.90;;;;;;;17.43;98.07;98672.19;270391;1267;22199;-77
2023/07/12 05:57:18;;;;;;;17.00;6.50;;;;;;;17.62;97.91;98685.61;273516;1266;22174;-78
2023/07/12 06:03:20;;;;;;;7.90;6.00;;;;;;;17.76;97.46;98684.90;273665;1269;22537;-77
2023/07/12 06:09:22;;;;;;;13.50;7.50;;;;;;;17.93;97.60;98684.99;271489;1267;22288;-77
2023/07/12 06:15:27;;;;;;;9.80;6.20;;;;;;;18.06;97.16;98686.82;273193;1269;23701;-77
2023/07/12 06:21:50;;;;;;;9.60;6.40;;;;;;;18.21;96.45;98676.06;273216;1264;22351;-78
2023/07/12 06:28:02;;;;;;;11.60;6.60;;;;;;;18.42;96.14;98676.53;273417;1267;22167;-76
2023/07/12 06:34:04;;;;;;;11.10;6.30;;;;;;;18.69;96.30;98681.07;273296;1269;22631;-78
2023/07/12 06:41:00;;;;;;;;;;;;;;;;;;;;;
2023/07/12 06:47:42;;;;;;;13.80;5.80;;;;;;;19.27;95.22;98657.52;273486;1269;22372;-77
2023/07/12 06:54:10;;;;;;;13.70;7.20;;;;;;;19.56;94.15;98640.48;273219;1263;24325;-77
2023/07/12 07:00:12;;;;;;;9.10;5.70;;;;;;;19.85;93.55;98641.21;273461;1260;22557;-78
2023/07/12 07:06:19;;;;;;;13.50;6.10;;;;;;;20.35;94.27;98643.73;273628;1269;22375;-78
2023/07/12 07:12:22;;;;;;;9.70;5.90;;;;;;;21.14;93.43;98641.02;273832;1269;23267;-77
2023/07/12 07:18:38;;;;;;;7.30;4.80;;;;;;;21.95;91.01;98628.20;273885;1263;22460;-77
2023/07/12 07:24:56;;;;;;;8.70;5.20;;;;;;;22.52;89.15;98618.50;273720;1267;22200;-76
2023/07/12 07:30:58;;;;;;;;;;;;;;;22.85;88.91;98614.23;274000;1272;23196;-77
2023/07/12 07:37:01;;;;;;;10.50;4.70;;;;;;;23.40;88.20;98598.34;273555;1267;22385;-77
2023/07/12 07:43:03;;;;;;;9.00;5.10;;;;;;;23.96;87.40;98583.86;273585;1267;22278;-78
2023/07/12 07:49:05;;;;;;;8.50;5.10;;;;;;;24.37;85.98;98571.80;273520;1267;22374;-78
2023/07/12 07:55:08;;;;;;;11.40;5.10;;;;;;;24.52;85.16;98559.98;273532;1264;23069;-77
2023/07/12 08:01:09;;;;;;;12.30;5.90;;;;;;;24.64;84.90;98545.95;273457;1268;22181;-77
2023/07/12 08:07:12;;;;;;;7.00;5.10;;;;;;;25.03;83.90;98547.70;273554;1267;23000;-77
2023/07/12 08:13:16;;;;;;;9.70;5.70;;;;;;;25.23;83.00;98548.23;273485;1267;22477;-80
2023/07/12 08:19:22;;;;;;;9.10;5.00;;;;;;;25.25;82.10;98546.35;273103;1267;22454;-78
2023/07/12 08:25:23;;;;;;;8.10;5.60;;;;;;;25.45;80.91;98545.69;273534;1266;22244;-77
2023/07/12 08:31:28;;;;;;;6.40;5.70;;;;;;;25.83;79.52;98555.45;273636;1267;23303;-77
2023/07/12 08:37:30;;;;;;;6.80;5.80;;;;;;;26.19;78.06;98560.73;273518;1259;22383;-78
2023/07/12 08:43:33;;;;;;;7.60;6.00;;;;;;;26.42;75.96;98560.14;273508;1266;22409;-79
2023/07/12 08:49:34;;;;;;;10.60;5.80;;;;;;;26.68;75.48;98547.35;273141;1266;22398;-82
2023/07/12 08:55:37;;;;;;;6.70;5.50;;;;;;;26.96;71.23;98553.64;272819;1267;22380;-80
2023/07/12 09:01:48;;;;;;;7.70;5.50;;;;;;;27.12;69.25;98549.77;273521;1266;22195;-79
2023/07/12 09:08:19;;;;;;;10.90;6.00;;;;;;;27.55;67.57;98542.33;273255;1267;24550;-78
2023/07/12 09:14:24;;;;;;;8.40;5.70;;;;;;;27.63;66.07;98553.13;273615;1267;22392;-78
2023/07/12 09:20:29;;;;;;;7.70;5.90;;;;;;;27.43;65.61;98545.42;273345;1266;23830;-80
2023/07/12 09:26:32;;;;;;;6.20;5.40;;;;;;;27.21;65.03;98543.27;271756;1261;22466;-79
2023/07/12 09:32:54;;;;;;;8.50;6.10;;;;;;;27.10;64.68;98556.39;271705;1267;25070;-77
2023/07/12 09:39:05;;;;;;;10.40;5.50;;;;;;;26.95;63.62;98564.35;274073;1271;22215;-78
2023/07/12 09:45:11;;;;;;;15.70;7.20;;;;;;;26.41;65.87;98591.26;273637;1266;22410;-81
2023/07/12 09:51:15;;;;;;;17.30;8.60;;;;;;;25.28;68.89;98613.66;272936;1266;22572;-80
2023/07/12 09:58:09;;;;;;;13.00;7.50;;;;;;;24.28;71.37;98608.05;271091;1267;23598;-83
2023/07/12 10:04:38;;;;;;;9.50;7.10;;;;;;;23.43;74.07;98573.95;271698;1269;22594;-79
2023/07/12 10:11:04;;;;;;;11.60;8.40;;;;;;;22.87;78.19;98566.98;271267;1267;22417;-78
2023/07/12 10:17:13;;;;;;;12.70;8.00;;;;;;;22.59;81.21;98554.83;271047;1268;23638;-78
2023/07/12 10:23:16;;;;;;;11.90;8.90;;;;;;;22.47;83.56;98558.76;271439;1269;22362;-80
2023/07/12 10:30:13;;;;;;;11.10;8.90;;;;;;;22.51;84.42;98546.52;273673;1259;22236;-79
2023/07/12 10:36:25;;;;;;;9.70;7.50;;;;;;;22.60;86.94;98532.94;271922;1261;22472;-79
2023/07/12 10:43:06;;;;;;;10.30;8.10;;;;;;;22.95;88.73;98524.11;272269;1257;22296;-79
2023/07/12 10:49:41;;;;;;;9.20;7.40;;;;;;;23.88;88.93;98527.79;272591;1264;23889;-79
2023/07/12 10:56:10;;;;;;;11.40;7.70;;;;;;;24.78;87.57;98531.35;273444;1267;23676;-80
2023/07/12 11:03:10;;;;;;;13.00;7.90;;;;;;;25.44;87.94;98524.06;273529;1266;23871;-78
2023/07/12 11:09:12;;;;;;;9.40;7.20;;;;;;;25.96;89.11;98532.05;273525;1268;22438;-79
2023/07/12 11:15:40;;;;;;;7.00;6.30;;;;;;;26.33;87.71;98552.59;274029;1275;22194;-78
2023/07/12 11:21:43;;;;;;;7.60;6.80;;;;;;;26.76;86.14;98551.07;273496;1267;22252;-79
2023/07/12 11:28:23;;;;;;;8.70;6.20;;;;;;;27.35;84.53;98538.80;273640;1257;23192;-78
2023/07/12 11:34:25;;;;;;;6.00;5.40;;;;;;;27.82;83.04;98542.44;273302;1269;22261;-79
2023/07/12 11:40:30;;;;;;;7.60;6.30;;;;;;;27.74;80.78;98546.66;273386;1267;23914;-79
2023/07/12 11:46:42;;;;;;;6.20;5.50;;;;;;;27.16;80.55;98553.22;273070;1254;22247;-78
2023/07/12 11:52:56;;;;;;;7.40;4.40;;;;;;;26.23;79.78;98562.34;272321;1266;22632;-77
2023/07/12 11:58:58;;;;;;;7.50;5.10;;;;;;;25.55;78.67;98577.70;272260;1262;23004;-79
2023/07/12 12:05:00;;;;;;;8.10;5.40;;;;;;;25.25;77.94;98581.30;272637;1267;22377;-78
2023/07/12 12:11:02;;;;;;;7.10;5.30;;;;;;;24.92;77.87;98582.83;272306;1267;22543;-78
2023/07/12 12:17:14;;;;;;;9.20;5.70;;;;;;;24.62;77.59;98582.93;272868;1267;22920;-79
2023/07/12 12:23:45;;;;;;;11.70;5.60;;;;;;;24.47;77.17;98573.07;273855;1270;23288;-78
2023/07/12 12:29:49;;;;;;;9.60;5.90;;;;;;;24.45;77.28;98576.39;273438;1257;22834;-79
2023/07/12 12:36:01;;;;;;;9.30;6.10;;;;;;;24.38;77.20;98594.36;271871;1259;23602;-77
2023/07/12 12:42:24;;;;;;;11.10;6.20;;;;;;;24.27;77.52;98609.11;274057;1257;22158;-77
2023/07/12 12:48:26;;;;;;;9.20;6.20;;;;;;;24.12;77.75;98607.27;273617;1258;23484;-78
2023/07/12 12:54:28;;;;;;;10.50;5.50;;;;;;;24.08;77.76;98614.54;273545;1267;22438;-78
2023/07/12 13:00:30;;;;;;;9.50;5.60;;;;;;;23.99;78.02;98617.02;273499;1267;23374;-77
2023/07/12 13:06:32;;;;;;;8.40;5.60;;;;;;;23.98;77.71;98615.25;273803;1267;22369;-77
2023/07/12 13:13:08;;;;;;;9.30;6.60;;;;;;;24.16;77.29;98616.59;274007;1269;22195;-77
2023/07/12 13:19:13;;;;;;;8.90;6.30;;;;;;;24.35;76.94;98620.83;273457;1261;22351;-78
2023/07/12 13:25:15;;;;;;;10.10;7.00;;;;;;;24.62;76.78;98619.23;273891;1253;22228;-77
2023/07/12 13:31:20;;;;;;;7.80;5.90;;;;;;;24.86;76.61;98614.54;273635;1267;22208;-77
2023/07/12 13:37:25;;;;;;;7.60;6.10;;;;;;;24.99;75.76;98616.61;273526;1267;22397;-77
2023/07/12 13:43:27;;;;;;;7.10;6.40;;;;;;;25.07;75.02;98620.23;273498;1267;22432;-77
2023/07/12 13:49:31;;;;;;;9.90;5.90;;;;;;;25.14;74.27;98618.39;273484;1267;23901;-77
2023/07/12 13:55:33;;;;;;;9.70;6.80;;;;;;;25.22;74.41;98605.95;273455;1267;22228;-77
2023/07/12 14:01:34;;;;;;;7.60;6.30;;;;;;;25.27;73.96;98597.68;273595;1267;22395;-77
2023/07/12 14:07:42;;;;;;;9.20;5.90;;;;;;;25.32;74.33;98585.96;273401;1259;22520;-75
2023/07/12 14:13:47;;;;;;;8.60;5.90;;;;;;;25.41;73.56;98574.41;273090;1267;23190;-77
2023/07/12 14:19:54;;;;;;;8.80;5.90;;;;;;;25.57;73.41;98570.64;273541;1267;22974;-78
2023/07/12 14:25:58;;;;;;;8.00;5.60;;;;;;;25.71;72.87;98558.73;273852;1269;22955;-76
2023/07/12 14:32:00;;;;;;;13.20;5.80;;;;;;;25.80;72.22;98554.84;273491;1258;22375;-77
2023/07/12 14:38:05;;;;;;;7.70;5.40;;;;;;;25.83;71.91;98550.41;273426;1265;22309;-77
2023/07/12 14:44:12;;;;;;;;;;;;;;;25.85;71.06;98544.62;273444;1267;22427;-77
2023/07/12 14:50:16;;;;;;;6.00;4.60;;;;;;;25.82;70.44;98538.31;273521;1267;22396;-77
2023/07/12 14:56:38;;;;;;;6.30;4.50;;;;;;;25.86;70.20;98538.31;273415;1268;22237;-78
2023/07/12 15:02:40;;;;;;;5.20;4.30;;;;;;;25.92;69.71;98534.02;271932;1268;22575;-78
2023/07/12 15:08:58;;;;;;;5.60;4.40;;;;;;;26.00;68.68;98533.63;271881;1266;25398;-77
2023/07/12 15:15:21;;;;;;;7.60;4.20;;;;;;;25.94;68.69;98540.77;271140;1253;132776;-77
2023/07/12 15:21:31;;;;;;;9.00;4.50;;;;;;;25.86;68.67;98540.26;273487;1267;22209;-76
2023/07/12 15:27:33;;;;;;;5.50;4.50;;;;;;;25.76;68.84;98541.54;271988;1267;24362;-81
2023/07/12 15:33:35;;;;;;;10.70;4.50;;;;;;;25.70;69.04;98538.59;272134;1257;22661;-77
2023/07/12 15:39:37;;;;;;;5.60;4.70;;;;;;;25.67;69.30;98535.12;272130;1267;22523;-76
2023/07/12 15:45:40;;;;;;;6.50;5.00;;;;;;;25.63;69.89;98540.00;271436;1267;24058;-82
2023/07/12 15:51:45;;;;;;;8.10;4.80;;;;;;;25.64;69.87;98540.79;265610;1266;10002147;-78
2023/07/12 15:57:47;;;;;;;7.30;4.90;;;;;;;25.70;69.69;98543.55;273289;1267;22509;-79
2023/07/12 16:03:50;;;;;;;5.90;4.40;;;;;;;25.71;69.71;98542.88;272970;1267;22179;-77
2023/07/12 16:10:00;;;;;;;6.60;4.80;;;;;;;25.67;69.77;98537.42;273396;1266;22295;-77
2023/07/12 16:16:02;;;;;;;5.30;4.50;;;;;;;25.60;70.13;98526.72;273370;1266;23157;-77
2023/07/12 16:22:09;;;;;;;10.40;4.90;;;;;;;25.48;70.00;98524.91;273511;1266;22496;-77
2023/07/12 16:28:13;;;;;;;5.80;4.20;;;;;;;25.35;69.67;98520.32;273154;1266;22485;-77
2023/07/12 16:34:24;;;;;;;7.40;4.20;;;;;;;25.29;69.72;98522.17;271788;1266;22530;-77
2023/07/12 16:40:26;;;;;;;8.10;4.50;;;;;;;25.23;70.20;98517.95;270838;1266;22549;-76
2023/07/12 16:46:48;;;;;;;6.50;4.90;;;;;;;25.17;70.08;98522.22;271676;1267;22591;-77
2023/07/12 16:52:51;;;;;;;9.80;4.60;;;;;;;25.14;70.20;98523.19;271513;1267;22237;-77
2023/07/12 16:58:54;;;;;;;6.70;4.60;;;;;;;25.16;70.18;98525.77;271603;1267;22379;-78
2023/07/12 17:04:56;;;;;;;6.70;4.50;;;;;;;25.19;70.70;98535.05;273471;1268;23714;-78
2023/07/12 17:11:20;;;;;;;5.90;4.60;;;;;;;25.24;70.67;98540.88;273465;1257;22525;-78
2023/07/12 17:17:23;;;;;;;6.10;5.10;;;;;;;25.31;70.80;98539.48;273291;1260;22469;-79
2023/07/12 17:23:30;;;;;;;8.70;4.60;;;;;;;25.35;71.10;98540.78;272971;1267;23208;-77
2023/07/12 17:29:33;;;;;;;6.30;4.60;;;;;;;25.35;70.81;98537.73;273432;1266;22434;-78
2023/07/12 17:35:55;;;;;;;5.20;4.20;;;;;;;25.33;70.68;98541.66;273516;1267;22111;-78
2023/07/12 17:41:57;;;;;;;9.40;5.60;;;;;;;25.27;70.57;98551.67;273472;1267;22648;-78
2023/07/12 17:48:19;;;;;;;7.10;5.10;;;;;;;25.23;70.66;98549.02;273520;1259;22187;-78
2023/07/12 17:54:22;;;;;;;9.90;5.10;;;;;;;25.18;71.08;98542.02;273539;1258;23636;-79
2023/07/12 18:00:24;;;;;;;7.70;5.60;;;;;;;25.10;71.69;98544.52;273540;1267;23399;-78
2023/07/12 18:06:27;;;;;;;6.90;5.20;;;;;;;24.91;72.41;98556.64;273507;1258;22367;-78
2023/07/12 18:12:30;;;;;;;8.00;5.80;;;;;;;24.71;73.03;98564.00;273505;1267;22193;-79
2023/07/12 18:18:31;;;;;;;8.40;6.00;;;;;;;24.55;73.69;98565.96;273429;1267;22395;-78
2023/07/12 18:24:33;;;;;;;10.10;5.50;;;;;;;24.46;74.74;98562.02;273463;1268;22382;-77
2023/07/12 18:30:56;;;;;;;7.50;6.00;;;;;;;24.37;75.17;98555.27;273533;1265;22210;-78
2023/07/12 18:36:58;;;;;;;7.00;5.70;;;;;;;24.31;75.08;98554.55;272309;1269;22606;-78
2023/07/12 18:43:00;;;;;;;7.70;5.90;;;;;;;24.18;76.07;98558.17;270881;1256;22381;-77
2023/07/12 18:49:02;;;;;;;8.00;5.80;;;;;;;23.97;76.82;98562.08;272396;1264;22402;-78
2023/07/12 18:55:05;;;;;;;10.30;6.50;;;;;;;23.73;77.50;98568.05;272969;1267;22691;-77
2023/07/12 19:01:14;;;;;;;10.90;7.40;;;;;;;23.49;77.99;98565.70;271644;1269;22318;-78
2023/07/12 19:07:36;;;;;;;8.00;6.80;;;;;;;23.34;78.89;98563.40;273427;1256;22231;-79
2023/07/12 19:13:39;;;;;;;8.00;7.10;;;;;;;23.27;79.36;98574.26;273459;1268;23073;-77
2023/07/12 19:20:01;;;;;;;8.30;7.00;;;;;;;23.16;79.93;98583.34;273525;1258;22302;-80
2023/07/12 19:26:03;;;;;;;13.50;7.30;;;;;;;22.98;80.28;98592.20;273543;1256;22394;-77
2023/07/12 19:32:30;;;;;;;11.70;7.30;;;;;;;22.72;80.73;98586.02;273384;1266;22377;-78
2023/07/12 19:38:31;;;;;;;9.70;6.70;;;;;;;22.48;81.55;98591.95;273383;1262;22389;-78
2023/07/12 19:44:33;;;;;;;9.80;7.20;;;;;;;22.36;82.02;98590.98;273615;1270;22641;-77
2023/07/12 19:50:35;;;;;;;9.20;6.70;;;;;;;22.19;82.91;98591.86;273718;1273;23424;-77
2023/07/12 19:56:38;;;;;;;11.50;7.60;;;;;;;22.09;83.97;98611.38;273203;1267;23275;-77
2023/07/12 20:02:40;;;;;;;10.30;7.40;;;;;;;21.94;84.60;98615.83;272453;1269;22627;-77
2023/07/12 20:08:42;;;;;;;15.60;8.60;;;;;;;21.86;85.63;98621.25;269650;1257;24970;-77
2023/07/12 20:14:44;;;;;;;11.40;8.00;;;;;;;21.80;86.67;98635.04;271940;1259;22367;-77
2023/07/12 20:20:53;;;;;;;10.20;7.70;;;;;;;21.79;87.16;98640.42;272604;1267;22534;-78
2023/07/12 20:27:16;;;;;;;12.30;7.70;;;;;;;21.74;87.93;98646.79;271892;1267;22258;-77
2023/07/12 20:33:19;;;;;;;14.00;8.90;;;;;;;21.69;88.49;98645.52;270963;1266;22373;-77
2023/07/12 20:39:27;;;;;;;13.70;9.50;;;;;;;21.63;88.98;98636.20;272069;1266;24451;-77
2023/07/12 20:45:43;;;;;;;14.20;10.60;;;;;;;21.58;89.68;98624.98;272451;1260;22262;-77
2023/07/12 20:51:44;;;;;;;19.10;12.30;;;;;;;21.47;90.40;98627.30;273076;1266;22209;-77
2023/07/12 20:57:50;;;;;;;16.60;11.10;;;;;;;21.45;90.87;98624.76;273347;1266;22601;-78
2023/07/12 21:03:53;;;;;;;14.40;10.60;;;;;;;21.43;91.52;98625.95;273388;1267;23479;-77
2023/07/12 21:09:55;;;;;;;15.20;10.90;;;;;;;21.36;91.94;98628.20;273561;1266;22405;-77
2023/07/12 21:16:09;;;;;;;13.60;10.60;;;;;;;21.29;92.83;98640.23;273639;1266;22485;-77
2023/07/12 21:22:11;;;;;;;12.70;10.40;;;;;;;21.26;93.49;98632.78;273642;1258;22171;-77
2023/07/12 21:28:14;;;;;;;15.50;10.90;;;;;;;21.24;94.37;98634.71;273665;1260;22564;-77
2023/07/12 21:34:16;;;;;;;14.80;11.70;;;;;;;21.18;95.07;98628.48;273416;1267;22160;-78
2023/07/12 21:40:18;;;;;;;18.70;11.30;;;;;;;21.07;95.82;98628.08;273133;1267;23518;-77
2023/07/12 21:46:19;;;;;;;13.00;10.80;;;;;;;20.98;96.47;98635.80;273555;1267;22829;-77
2023/07/12 21:52:21;;;;;;;15.90;10.80;;;;;;;20.95;97.10;98644.89;273572;1256;22458;-77
2023/07/12 21:58:23;;;;;;;13.90;10.50;;;;;;;20.91;97.76;98667.28;273337;1269;23513;-77
2023/07/12 22:04:25;;;;;;;15.40;10.80;;;;;;;20.86;98.42;98681.06;271959;1267;24196;-77
2023/07/12 22:10:41;;;;;;;16.70;9.80;;;;;;;20.77;98.59;98685.43;271558;1259;22412;-77
2023/07/12 22:16:42;;;;;;;14.80;9.30;;;;;;;20.69;97.84;98682.91;272957;1256;22216;-77
2023/07/12 22:22:45;;;;;;;12.00;8.60;;;;;;;20.78;97.80;98683.02;273527;1269;23101;-75
2023/07/12 22:28:47;;;;;;;12.50;7.80;;;;;;;20.82;97.55;98688.91;273584;1267;22370;-80
2023/07/12 22:34:49;;;;;;;13.20;8.10;;;;;;;20.81;97.66;98694.98;273518;1262;22462;-77
2023/07/12 22:40:51;;;;;;;9.00;7.00;;;;;;;20.78;97.81;98692.18;273469;1267;22560;-81
2023/07/12 22:46:53;;;;;;;11.10;7.50;;;;;;;20.79;97.57;98685.35;273139;1268;22495;-78
2023/07/12 22:52:55;;;;;;;8.60;6.50;;;;;;;20.80;97.71;98680.17;272925;1269;22217;-77
2023/07/12 22:59:18;;;;;;;10.10;6.80;;;;;;;20.81;97.79;98671.46;273245;1269;22525;-77
2023/07/12 23:05:20;;;;;;;8.60;6.80;;;;;;;20.78;97.79;98661.55;272885;1267;22178;-77
2023/07/12 23:11:22;;;;;;;9.20;6.60;;;;;;;20.76;98.04;98664.31;272507;1269;22590;-77
2023/07/12 23:17:44;;;;;;;6.60;5.80;;;;;;;20.77;98.31;98661.20;272258;1269;22286;-77
2023/07/12 23:23:47;;;;;;;8.20;6.50;;;;;;;20.71;98.72;98659.98;273585;1267;22455;-77
2023/07/12 23:29:52;;;;;;;13.80;7.40;;;;;;;20.64;98.99;98664.75;273736;1269;22538;-77
2023/07/12 23:35:54;;;;;;;9.90;6.90;;;;;;;20.59;99.20;98665.95;273561;1269;22200;-76
2023/07/12 23:42:02;;;;;;;9.90;6.80;;;;;;;20.52;99.06;98660.32;273502;1269;23499;-77
2023/07/12 23:48:04;;;;;;;12.70;7.00;;;;;;;20.49;99.73;98666.87;273602;1266;22178;-77
2023/07/12 23:54:09;;;;;;;14.10;6.70;;;;;;;20.40;100.00;98701.15;273200;1267;22454;-81
